Terminal Aerodrome Forecast
Issued by NWS

Current Version | Previous Version | Graphics & Text | Print | Product List | Glossary Off
Versions: 1 2 3 4 5 6 7 8 9 10 11 12 13 14 15 16 17 18 19

000
FTUS41 KILN 230906 AAA
TAFLCK
TAF AMD
KLCK 230906Z 2309/2406 36004KT P6SM OVC025
     FM231400 01005KT P6SM SCT025
     FM231600 03007KT P6SM SCT035
     FM232300 05003KT P6SM SKC
      AMD NOT SKED=

USA.gov is the U.S. government's official web portal to all federal, state and local government web resources and services.